createdAt,value
2018-05-08T00:02:03.082Z,94474.91
2018-05-08T00:04:29.486Z,94486.24
2018-05-08T00:06:55.801Z,94479.67
2018-05-08T00:09:22.180Z,94483.52
2018-05-08T00:11:48.515Z,94482.55
2018-05-08T00:14:14.854Z,94462.14
2018-05-08T00:16:41.209Z,94483.76
2018-05-08T00:19:07.529Z,94482.70
2018-05-08T00:21:33.903Z,94485.36
2018-05-08T00:24:00.253Z,94484.66
2018-05-08T00:26:26.576Z,94487.94
2018-05-08T00:28:52.924Z,94482.63
2018-05-08T00:31:19.257Z,94476.69
2018-05-08T00:33:45.636Z,94481.07
2018-05-08T00:36:11.948Z,94484.45
2018-05-08T00:38:38.337Z,94474.28
2018-05-08T00:41:04.664Z,94481.16
2018-05-08T00:43:31.018Z,94487.05
2018-05-08T00:45:57.337Z,94478.14
2018-05-08T00:48:23.704Z,94476.67
2018-05-08T00:50:50.020Z,94478.09
2018-05-08T00:53:16.460Z,94463.41
2018-05-08T00:55:42.812Z,94456.38
2018-05-08T00:58:09.148Z,94463.07
2018-05-08T01:00:35.510Z,94461.36
2018-05-08T01:03:01.860Z,94449.98
2018-05-08T01:05:28.324Z,94434.21
2018-05-08T01:07:54.634Z,94460.49
2018-05-08T01:10:20.970Z,94443.97
2018-05-08T01:12:47.328Z,94452.58
2018-05-08T01:15:13.649Z,94454.52
2018-05-08T01:17:40.069Z,94440.33
2018-05-08T01:20:06.404Z,94445.05
2018-05-08T01:22:32.790Z,94437.03
2018-05-08T01:24:59.122Z,94450.55
2018-05-08T01:27:25.436Z,94439.59
2018-05-08T01:29:51.811Z,94429.15
2018-05-08T01:32:18.173Z,94429.83
2018-05-08T01:34:44.530Z,94430.19
2018-05-08T01:37:10.852Z,94415.53
2018-05-08T01:39:37.222Z,94424.89
2018-05-08T01:42:03.634Z,94419.12
2018-05-08T01:44:30.044Z,94417.73
2018-05-08T01:46:56.367Z,94420.36
2018-05-08T01:49:22.744Z,94413.05
2018-05-08T01:51:49.094Z,94402.52
2018-05-08T01:54:15.492Z,94407.25
2018-05-08T01:56:41.824Z,94402.62
2018-05-08T01:59:08.152Z,94408.38
2018-05-08T02:01:34.509Z,94406.11
2018-05-08T02:04:00.883Z,94398.50
2018-05-08T02:06:27.220Z,94395.58
2018-05-08T02:08:53.543Z,94399.79
2018-05-08T02:11:19.964Z,94394.38
2018-05-08T02:13:46.349Z,94402.20
2018-05-08T02:16:12.724Z,94401.59
2018-05-08T02:18:39.108Z,94398.55
2018-05-08T02:21:05.528Z,94398.91
2018-05-08T02:23:31.878Z,94389.70
2018-05-08T02:25:58.293Z,94398.08
2018-05-08T02:28:24.610Z,94397.98
2018-05-08T02:30:51.055Z,94395.41
2018-05-08T02:33:17.408Z,94400.30
2018-05-08T02:35:43.916Z,94397.05
2018-05-08T02:38:10.333Z,94397.73
2018-05-08T02:40:36.661Z,94402.77
2018-05-08T02:43:03.082Z,94394.07
2018-05-08T02:45:29.401Z,94398.95
2018-05-08T02:47:55.753Z,94398.72
2018-05-08T02:50:23.158Z,94392.74
2018-05-08T02:52:49.485Z,94396.14
2018-05-08T02:55:15.874Z,94393.30
2018-05-08T02:57:42.283Z,94395.02
2018-05-08T03:00:08.720Z,94372.80
2018-05-08T03:02:35.067Z,94379.42
2018-05-08T03:05:01.546Z,94385.70
2018-05-08T03:07:27.932Z,94397.00
2018-05-08T03:09:54.266Z,94393.97
2018-05-08T03:12:20.650Z,94394.86
2018-05-08T03:17:19.477Z,94395.53
2018-05-08T03:19:45.856Z,94398.55
2018-05-08T03:22:12.242Z,94409.47
2018-05-08T03:24:38.695Z,94402.82
2018-05-08T03:27:05.068Z,94413.25
2018-05-08T03:29:31.478Z,94397.83
2018-05-08T03:31:57.826Z,94401.28
2018-05-08T03:34:24.198Z,94403.70
2018-05-08T03:36:50.564Z,94388.74
2018-05-08T03:39:16.901Z,94392.73
2018-05-08T03:41:43.289Z,94383.39
2018-05-08T03:44:09.626Z,94394.23
2018-05-08T03:46:36.009Z,94394.86
2018-05-08T03:49:02.325Z,94396.20
2018-05-08T03:51:28.756Z,94388.95
2018-05-08T03:53:55.088Z,94397.06
2018-05-08T03:56:21.446Z,94396.38
2018-05-08T03:58:47.802Z,94398.72
2018-05-08T04:01:14.222Z,94405.23
2018-05-08T04:03:40.615Z,94397.47
2018-05-08T04:06:06.968Z,94392.73
2018-05-08T04:08:33.359Z,94404.45
2018-05-08T04:10:59.714Z,94402.95
2018-05-08T04:13:26.093Z,94403.87
2018-05-08T04:15:52.423Z,94405.30
2018-05-08T04:18:18.766Z,94391.53
2018-05-08T04:20:45.225Z,94400.34
2018-05-08T04:23:11.570Z,94386.94
2018-05-08T04:25:37.898Z,94395.51
2018-05-08T04:28:04.897Z,94390.13
2018-05-08T04:30:31.259Z,94404.66
2018-05-08T04:32:57.642Z,94404.28
2018-05-08T04:35:24.071Z,94396.70
2018-05-08T04:37:50.423Z,94406.37
2018-05-08T04:40:16.864Z,94404.91
2018-05-08T04:42:43.334Z,94397.33
2018-05-08T04:45:09.919Z,94374.26
2018-05-08T04:47:36.285Z,94397.88
2018-05-08T04:50:02.665Z,94394.02
2018-05-08T04:52:29.149Z,94379.30
2018-05-08T04:54:55.552Z,94394.55
2018-05-08T04:57:21.870Z,94396.32
2018-05-08T04:59:48.248Z,94374.41
2018-05-08T05:02:14.675Z,94387.43
2018-05-08T05:04:41.025Z,94395.58
2018-05-08T05:07:07.433Z,94376.27
2018-05-08T05:09:33.814Z,94389.07
2018-05-08T05:12:01.275Z,94377.28
2018-05-08T05:14:27.871Z,94390.58
2018-05-08T05:16:54.210Z,94384.47
2018-05-08T05:19:20.659Z,94378.50
2018-05-08T05:21:47.065Z,94374.86
2018-05-08T05:24:13.440Z,94403.11
2018-05-08T05:26:39.864Z,94385.45
2018-05-08T05:29:06.336Z,94385.81
2018-05-08T05:31:32.788Z,94388.72
2018-05-08T05:33:59.335Z,94379.71
2018-05-08T05:36:25.691Z,94391.83
2018-05-08T05:38:52.096Z,94379.77
2018-05-08T05:41:18.550Z,94381.84
2018-05-08T05:43:44.934Z,94376.41
2018-05-08T05:46:11.282Z,94370.06
2018-05-08T05:48:37.649Z,94378.67
2018-05-08T05:51:04.027Z,94373.91
2018-05-08T05:53:30.373Z,94390.16
2018-05-08T05:55:56.782Z,94389.61
2018-05-08T05:58:23.118Z,94372.41
2018-05-08T06:00:49.527Z,94367.34
2018-05-08T06:03:15.997Z,94389.06
2018-05-08T06:05:42.336Z,94381.95
2018-05-08T06:08:08.756Z,94379.50
2018-05-08T06:10:35.165Z,94385.33
2018-05-08T06:13:01.570Z,94387.47
2018-05-08T06:15:27.904Z,94376.20
2018-05-08T06:17:54.301Z,94377.08
2018-05-08T06:20:20.694Z,94380.03
2018-05-08T06:22:47.093Z,94371.83
2018-05-08T06:25:13.781Z,94367.55
2018-05-08T06:27:40.352Z,94354.19
2018-05-08T06:30:06.749Z,94356.81
2018-05-08T06:32:33.101Z,94351.20
2018-05-08T06:34:59.509Z,94338.34
2018-05-08T06:37:25.885Z,94359.41
2018-05-08T06:39:52.281Z,94358.24
2018-05-08T06:42:18.726Z,94352.23
2018-05-08T06:44:45.139Z,94355.04
2018-05-08T06:47:11.499Z,94360.02
2018-05-08T06:49:37.940Z,94359.36
2018-05-08T06:52:04.435Z,94366.29
2018-05-08T06:54:30.863Z,94362.88
2018-05-08T06:56:57.253Z,94361.55
2018-05-08T06:59:23.610Z,94339.35
2018-05-08T07:01:49.952Z,94363.09
2018-05-08T07:04:16.288Z,94358.95
2018-05-08T07:06:42.695Z,94359.75
2018-05-08T07:09:09.141Z,94335.64
2018-05-08T07:11:35.571Z,94351.11
2018-05-08T07:14:01.954Z,94357.72
2018-05-08T07:16:28.318Z,94354.84
2018-05-08T07:18:54.718Z,94348.78
2018-05-08T07:21:21.088Z,94340.00
2018-05-08T07:23:47.657Z,94363.28
2018-05-08T07:26:14.217Z,94352.48
2018-05-08T07:28:40.573Z,94340.44
2018-05-08T07:31:07.103Z,94343.92
2018-05-08T07:33:33.547Z,94350.25
2018-05-08T07:35:59.948Z,94354.64
2018-05-08T07:38:26.336Z,94328.81
2018-05-08T07:40:52.934Z,94345.08
2018-05-08T07:43:19.799Z,94329.59
2018-05-08T07:45:46.544Z,94315.44
2018-05-08T07:48:13.413Z,94322.48
2018-05-08T07:50:39.945Z,94339.09
2018-05-08T07:53:06.743Z,94333.86
2018-05-08T07:55:33.725Z,94329.81
2018-05-08T07:58:02.216Z,94334.16
2018-05-08T08:00:36.717Z,94332.14
2018-05-08T08:03:06.161Z,94334.68
2018-05-08T08:05:34.162Z,94333.52
2018-05-08T08:08:01.309Z,94330.87
2018-05-08T08:15:52.839Z,94324.75
2018-05-08T08:18:21.196Z,94333.48
2018-05-08T08:20:47.933Z,94335.91
2018-05-08T08:23:15.520Z,94329.25
2018-05-08T08:25:42.365Z,94327.28
2018-05-08T08:28:09.722Z,94320.59
2018-05-08T08:30:38.053Z,94322.89
2018-05-08T08:33:05.264Z,94314.19
2018-05-08T08:35:32.069Z,94318.05
2018-05-08T08:37:59.069Z,94333.27
2018-05-08T08:40:30.354Z,94297.63
2018-05-08T08:42:57.699Z,94313.13
2018-05-08T08:45:24.676Z,94318.72
2018-05-08T08:47:51.424Z,94323.98
2018-05-08T08:50:18.194Z,94317.47
2018-05-08T08:52:45.002Z,94293.00
2018-05-08T08:55:11.736Z,94285.50
2018-05-08T08:57:38.679Z,94312.78
2018-05-08T09:00:05.275Z,94316.80
2018-05-08T09:02:31.733Z,94300.64
2018-05-08T09:04:58.295Z,94303.28
2018-05-08T09:07:24.715Z,94312.95
2018-05-08T09:09:51.220Z,94297.61
2018-05-08T09:12:17.772Z,94294.82
2018-05-08T09:14:44.116Z,94291.28
2018-05-08T09:17:10.545Z,94306.44
2018-05-08T09:19:36.898Z,94299.23
2018-05-08T09:22:03.361Z,94286.03
2018-05-08T09:24:29.816Z,94282.31
2018-05-08T09:26:56.490Z,94274.16
2018-05-08T09:29:23.024Z,94272.67
2018-05-08T09:31:49.456Z,94282.38
2018-05-08T09:34:15.978Z,94274.21
2018-05-08T09:36:42.410Z,94271.88
2018-05-08T09:39:08.961Z,94266.34
2018-05-08T09:41:35.315Z,94263.01
2018-05-08T09:44:03.766Z,94264.72
2018-05-08T09:46:30.179Z,94262.67
2018-05-08T09:48:56.723Z,94260.07
2018-05-08T09:51:23.158Z,94251.05
2018-05-08T09:53:49.558Z,94255.52
2018-05-08T09:56:15.974Z,94247.41
2018-05-08T09:58:42.362Z,94251.70
2018-05-08T10:01:08.793Z,94253.01
2018-05-08T10:03:35.202Z,94251.17
2018-05-08T10:06:01.669Z,94257.19
2018-05-08T10:08:28.173Z,94240.93
2018-05-08T10:10:54.685Z,94245.00
2018-05-08T10:13:21.097Z,94244.81
2018-05-08T10:15:48.201Z,94242.89
2018-05-08T10:18:14.706Z,94244.40
2018-05-08T10:20:41.409Z,94242.87
2018-05-08T10:23:07.900Z,94224.91
2018-05-08T10:25:34.606Z,94228.56
2018-05-08T10:28:01.029Z,94234.41
2018-05-08T10:30:27.399Z,94238.90
2018-05-08T10:32:54.047Z,94214.23
2018-05-08T10:35:21.084Z,94216.79
2018-05-08T10:37:47.547Z,94223.16
2018-05-08T10:40:13.938Z,94228.05
2018-05-08T10:42:40.423Z,94219.84
2018-05-08T10:45:06.705Z,94220.64
2018-05-08T10:47:33.049Z,94225.03
2018-05-08T10:50:00.548Z,94199.17
2018-05-08T10:52:26.993Z,94205.06
2018-05-08T10:54:56.772Z,94202.38
2018-05-08T10:57:23.623Z,94201.87
2018-05-08T10:59:50.154Z,94195.58
2018-05-08T11:02:16.731Z,94179.89
2018-05-08T11:04:43.148Z,94187.62
2018-05-08T11:07:09.540Z,94191.02
2018-05-08T11:09:36.007Z,94177.28
2018-05-08T11:12:02.431Z,94174.42
2018-05-08T11:14:28.882Z,94163.67
2018-05-08T11:16:55.395Z,94164.08
2018-05-08T11:19:21.762Z,94166.32
2018-05-08T11:21:48.154Z,94156.40
2018-05-08T11:24:14.796Z,94163.91
2018-05-08T11:26:41.266Z,94167.69
2018-05-08T11:29:07.536Z,94153.23
2018-05-08T11:34:06.524Z,94144.05
2018-05-08T11:36:32.893Z,94148.98
2018-05-08T11:38:59.365Z,94160.71
2018-05-08T11:41:25.870Z,94157.14
2018-05-08T11:43:52.477Z,94140.95
2018-05-08T11:46:18.849Z,94138.02
2018-05-08T11:48:45.372Z,94145.22
2018-05-08T11:51:11.746Z,94142.61
2018-05-08T11:53:38.155Z,94138.30
2018-05-08T11:56:05.539Z,94136.86
2018-05-08T11:58:31.866Z,94134.99
2018-05-08T12:00:59.190Z,94126.45
2018-05-08T12:03:25.905Z,94132.08
2018-05-08T12:05:52.543Z,94117.97
2018-05-08T12:08:19.014Z,94112.58
2018-05-08T12:10:45.596Z,94109.16
2018-05-08T12:13:12.155Z,94110.01
2018-05-08T12:15:38.576Z,94111.31
2018-05-08T12:18:05.178Z,94105.41
2018-05-08T12:20:31.554Z,94093.50
2018-05-08T12:22:57.980Z,94094.27
2018-05-08T12:25:24.697Z,94105.69
2018-05-08T12:27:51.305Z,94099.00
2018-05-08T12:30:17.703Z,94100.30
2018-05-08T12:32:44.510Z,94100.62
2018-05-08T12:35:12.499Z,94073.13
2018-05-08T12:37:39.143Z,94072.27
2018-05-08T12:40:05.528Z,94085.84
2018-05-08T12:42:32.024Z,94074.30
2018-05-08T12:44:58.396Z,94087.18
2018-05-08T12:47:24.799Z,94094.77
2018-05-08T12:49:51.298Z,94083.64
2018-05-08T12:52:17.844Z,94073.66
2018-05-08T12:54:44.309Z,94090.10
2018-05-08T12:57:10.793Z,94084.30
2018-05-08T12:59:37.275Z,94089.50
2018-05-08T13:02:03.691Z,94100.49
2018-05-08T13:04:30.098Z,94086.83
2018-05-08T13:06:56.536Z,94094.73
2018-05-08T13:09:22.932Z,94077.90
2018-05-08T13:11:49.335Z,94087.41
2018-05-08T13:14:15.791Z,94074.13
2018-05-08T13:16:42.503Z,94085.84
2018-05-08T13:19:09.040Z,94092.70
2018-05-08T13:21:35.480Z,94072.13
2018-05-08T13:24:01.994Z,94077.48
2018-05-08T13:26:28.595Z,94085.25
2018-05-08T13:28:55.634Z,94076.42
2018-05-08T13:31:22.031Z,94080.34
2018-05-08T13:33:48.382Z,94088.23
2018-05-08T13:36:14.752Z,94074.34
2018-05-08T13:38:41.289Z,94081.78
2018-05-08T13:41:07.714Z,94081.47
2018-05-08T13:43:34.200Z,94075.81
2018-05-08T13:46:00.636Z,94081.39
2018-05-08T13:48:27.053Z,94081.25
2018-05-08T13:50:53.408Z,94075.10
2018-05-08T13:53:19.787Z,94078.23
2018-05-08T13:55:46.301Z,94045.19
2018-05-08T13:58:12.847Z,94063.33
2018-05-08T14:00:39.173Z,94061.86
2018-05-08T14:03:05.568Z,94065.27
2018-05-08T14:05:32.049Z,94072.16
2018-05-08T14:07:58.417Z,94064.55
2018-05-08T14:10:24.789Z,94070.55
2018-05-08T14:12:51.160Z,94066.34
2018-05-08T14:15:17.605Z,94070.41
2018-05-08T14:17:43.963Z,94065.86
2018-05-08T14:20:10.428Z,94065.77
2018-05-08T14:22:36.805Z,94075.31
2018-05-08T14:25:03.176Z,94077.95
2018-05-08T14:27:29.577Z,94053.63
2018-05-08T14:29:55.991Z,94071.17
2018-05-08T14:32:22.423Z,94082.75
2018-05-08T14:34:48.834Z,94075.78
2018-05-08T14:37:15.271Z,94078.84
2018-05-08T14:39:41.647Z,94084.05
2018-05-08T14:42:08.004Z,94086.08
2018-05-08T14:44:34.399Z,94090.60
2018-05-08T14:47:00.835Z,94093.06
2018-05-08T14:49:27.325Z,94090.48
2018-05-08T14:51:53.669Z,94064.69
2018-05-08T14:54:20.055Z,94081.74
2018-05-08T14:56:46.769Z,94085.20
2018-05-08T14:59:13.919Z,94087.96
2018-05-08T15:01:43.026Z,94083.00
2018-05-08T15:04:11.630Z,94084.39
2018-05-08T15:06:39.446Z,94079.20
2018-05-08T15:09:06.671Z,94075.66
2018-05-08T15:11:33.318Z,94072.54
2018-05-08T15:14:00.364Z,94080.39
2018-05-08T15:16:26.789Z,94087.66
2018-05-08T15:18:53.232Z,94078.63
2018-05-08T15:21:19.635Z,94082.66
2018-05-08T15:23:46.316Z,94073.32
2018-05-08T15:26:12.892Z,94082.97
2018-05-08T15:28:39.946Z,94085.35
2018-05-08T15:31:06.819Z,94077.23
2018-05-08T15:33:33.446Z,94087.94
2018-05-08T15:35:59.794Z,94081.34
2018-05-08T15:38:26.198Z,94091.78
2018-05-08T15:40:52.729Z,94082.88
2018-05-08T15:43:19.270Z,94089.67
2018-05-08T15:45:45.768Z,94079.03
2018-05-08T15:48:12.173Z,94080.39
2018-05-08T15:50:38.551Z,94082.36
2018-05-08T15:53:05.033Z,94087.46
2018-05-08T15:55:31.659Z,94081.11
2018-05-08T15:57:58.102Z,94088.17
2018-05-08T16:00:24.455Z,94078.69
2018-05-08T16:02:50.816Z,94067.27
2018-05-08T16:05:17.190Z,94087.86
2018-05-08T16:07:43.667Z,94083.55
2018-05-08T16:10:10.065Z,94079.47
2018-05-08T16:12:36.408Z,94080.25
2018-05-08T16:15:02.771Z,94082.33
2018-05-08T16:17:29.241Z,94088.34
2018-05-08T16:19:55.638Z,94097.30
2018-05-08T16:22:22.009Z,94089.62
2018-05-08T16:24:48.395Z,94099.38
2018-05-08T16:27:14.993Z,94079.08
2018-05-08T16:29:41.449Z,94096.97
2018-05-08T16:32:07.848Z,94086.96
2018-05-08T16:34:34.168Z,94084.02
2018-05-08T16:37:00.540Z,94079.06
2018-05-08T16:39:27.030Z,94091.84
2018-05-08T16:41:53.276Z,94101.16
2018-05-08T16:44:19.644Z,94097.66
2018-05-08T16:46:46.107Z,94080.53
2018-05-08T16:49:12.490Z,94107.55
2018-05-08T16:51:38.817Z,94098.08
2018-05-08T16:54:05.306Z,94105.75
2018-05-08T16:56:31.617Z,94110.14
2018-05-08T16:58:58.177Z,94122.86
2018-05-08T17:01:24.595Z,94120.08
2018-05-08T17:03:50.908Z,94116.33
2018-05-08T17:06:17.264Z,94123.70
2018-05-08T17:08:43.592Z,94132.37
2018-05-08T17:11:09.964Z,94129.25
2018-05-08T17:13:36.352Z,94126.95
2018-05-08T17:16:02.674Z,94130.33
2018-05-08T17:18:29.032Z,94114.92
2018-05-08T17:20:55.470Z,94127.78
2018-05-08T17:23:21.796Z,94138.22
2018-05-08T17:25:48.168Z,94138.22
2018-05-08T17:28:14.577Z,94131.94
2018-05-08T17:30:41.032Z,94147.95
2018-05-08T17:33:07.344Z,94146.47
2018-05-08T17:35:33.653Z,94150.77
2018-05-08T17:37:59.974Z,94155.14
2018-05-08T17:40:26.380Z,94154.98
2018-05-08T17:42:52.780Z,94162.62
2018-05-08T17:45:19.132Z,94166.23
2018-05-08T17:47:45.455Z,94160.83
2018-05-08T17:50:11.888Z,94167.87
2018-05-08T17:52:38.218Z,94168.82
2018-05-08T17:55:04.584Z,94170.45
2018-05-08T17:57:30.980Z,94160.14
2018-05-08T17:59:57.351Z,94168.73
2018-05-08T18:02:23.681Z,94162.86
2018-05-08T18:04:50.024Z,94169.61
2018-05-08T18:07:16.386Z,94166.23
2018-05-08T18:09:42.840Z,94175.52
2018-05-08T18:12:09.244Z,94158.85
2018-05-08T18:14:35.567Z,94181.60
2018-05-08T18:17:02.218Z,94183.16
2018-05-08T18:19:28.656Z,94183.26
2018-05-08T18:21:55.007Z,94161.80
2018-05-08T18:24:21.316Z,94192.79
2018-05-08T18:26:47.676Z,94189.67
2018-05-08T18:29:14.080Z,94189.56
2018-05-08T18:31:40.460Z,94196.13
2018-05-08T18:34:06.829Z,94201.05
2018-05-08T18:36:33.172Z,94185.31
2018-05-08T18:38:59.520Z,94199.98
2018-05-08T18:41:25.885Z,94200.70
2018-05-08T18:43:52.322Z,94192.51
2018-05-08T18:46:18.887Z,94185.66
2018-05-08T18:48:45.329Z,94197.53
2018-05-08T18:51:11.593Z,94201.96
2018-05-08T18:53:38.018Z,94203.20
2018-05-08T18:56:04.382Z,94206.39
2018-05-08T18:58:30.754Z,94202.48
2018-05-08T19:00:57.080Z,94202.23
2018-05-08T19:03:23.467Z,94209.21
2018-05-08T19:05:49.814Z,94202.10
2018-05-08T19:08:16.189Z,94205.75
2018-05-08T19:10:42.502Z,94199.34
2018-05-08T19:13:08.864Z,94209.87
2018-05-08T19:15:35.232Z,94213.27
2018-05-08T19:18:01.937Z,94212.38
2018-05-08T19:20:28.318Z,94214.22
2018-05-08T19:22:54.636Z,94217.32
2018-05-08T19:25:20.993Z,94209.71
2018-05-08T19:27:47.365Z,94198.39
2018-05-08T19:30:13.732Z,94214.61
2018-05-08T19:32:40.049Z,94214.28
2018-05-08T19:35:06.472Z,94232.94
2018-05-08T19:37:32.796Z,94222.68
2018-05-08T19:39:59.141Z,94231.58
2018-05-08T19:42:25.491Z,94221.84
2018-05-08T19:44:51.916Z,94224.73
2018-05-08T19:47:18.359Z,94227.55
2018-05-08T19:49:44.773Z,94229.41
2018-05-08T19:52:11.086Z,94230.81
2018-05-08T19:54:38.242Z,94220.80
2018-05-08T19:57:04.588Z,94221.26
2018-05-08T19:59:31.054Z,94225.25
2018-05-08T20:01:57.448Z,94222.37
2018-05-08T20:04:23.835Z,94215.15
2018-05-08T20:06:50.179Z,94217.92
2018-05-08T20:09:16.611Z,94217.68
2018-05-08T20:11:42.928Z,94206.95
2018-05-08T20:14:09.412Z,94216.39
2018-05-08T20:16:35.777Z,94215.33
2018-05-08T20:19:02.175Z,94209.37
2018-05-08T20:21:28.665Z,94222.36
2018-05-08T20:23:55.005Z,94223.07
2018-05-08T20:26:22.427Z,94216.86
2018-05-08T20:28:49.035Z,94217.92
2018-05-08T20:31:15.603Z,94204.91
2018-05-08T20:33:41.950Z,94208.01
2018-05-08T20:36:08.621Z,94208.25
2018-05-08T20:38:34.984Z,94200.27
2018-05-08T20:41:01.348Z,94205.25
2018-05-08T20:43:27.700Z,94197.84
2018-05-08T20:45:54.076Z,94202.72
2018-05-08T20:48:20.544Z,94193.42
2018-05-08T20:50:46.918Z,94191.17
2018-05-08T20:53:13.313Z,94204.19
2018-05-08T20:55:39.904Z,94203.66
2018-05-08T20:58:07.630Z,94203.72
2018-05-08T21:00:34.315Z,94207.13
2018-05-08T21:03:01.063Z,94210.47
2018-05-08T21:05:27.592Z,94204.61
2018-05-08T21:07:54.755Z,94213.53
2018-05-08T21:10:21.324Z,94212.35
2018-05-08T21:12:47.648Z,94202.05
2018-05-08T21:15:14.072Z,94216.16
2018-05-08T21:17:40.579Z,94228.66
2018-05-08T21:20:07.001Z,94220.85
2018-05-08T21:22:33.338Z,94211.82
2018-05-08T21:24:59.714Z,94213.84
2018-05-08T21:27:26.077Z,94212.03
2018-05-08T21:29:53.121Z,94200.34
2018-05-08T21:32:19.468Z,94206.21
2018-05-08T21:34:45.853Z,94192.17
2018-05-08T21:37:12.344Z,94211.66
2018-05-08T21:39:38.725Z,94199.22
2018-05-08T21:42:05.198Z,94208.42
2018-05-08T21:44:31.850Z,94216.59
2018-05-08T21:46:58.196Z,94207.59
2018-05-08T21:49:24.726Z,94214.91
2018-05-08T21:51:51.072Z,94209.53
2018-05-08T21:54:17.671Z,94195.45
2018-05-08T21:56:44.004Z,94199.84
2018-05-08T21:59:10.986Z,94190.70
2018-05-08T22:01:37.568Z,94190.41
2018-05-08T22:04:03.981Z,94191.65
2018-05-08T22:06:30.359Z,94193.41
2018-05-08T22:08:59.928Z,94190.07
2018-05-08T22:11:26.863Z,94197.28
2018-05-08T22:13:53.472Z,94186.97
2018-05-08T22:16:19.899Z,94198.09
2018-05-08T22:18:46.380Z,94194.77
2018-05-08T22:21:14.685Z,94184.80
2018-05-08T22:23:41.557Z,94187.95
2018-05-08T22:26:07.917Z,94183.73
2018-05-08T22:28:34.338Z,94188.17
2018-05-08T22:31:00.699Z,94191.56
2018-05-08T22:33:27.065Z,94185.48
2018-05-08T22:35:53.432Z,94186.66
2018-05-08T22:38:19.879Z,94183.81
2018-05-08T22:40:46.252Z,94188.05
2018-05-08T22:43:12.726Z,94184.56
2018-05-08T22:45:39.072Z,94179.95
2018-05-08T22:48:05.388Z,94177.08
2018-05-08T22:50:32.735Z,94177.08
2018-05-08T22:52:59.121Z,94175.83
2018-05-08T22:55:25.560Z,94166.18
2018-05-08T22:57:51.890Z,94165.05
2018-05-08T23:00:18.223Z,94166.11
2018-05-08T23:02:44.934Z,94166.59
2018-05-08T23:05:11.710Z,94160.41
2018-05-08T23:07:38.073Z,94165.87
2018-05-08T23:10:04.395Z,94165.93
2018-05-08T23:12:30.775Z,94151.80
2018-05-08T23:14:57.093Z,94166.56
2018-05-08T23:17:23.428Z,94147.89
2018-05-08T23:22:30.960Z,94155.97
2018-05-08T23:24:57.449Z,94156.56
2018-05-08T23:27:24.036Z,94162.37
2018-05-08T23:29:50.400Z,94154.50
2018-05-08T23:32:17.042Z,94165.75
2018-05-08T23:34:43.469Z,94167.63
2018-05-08T23:37:09.797Z,94164.77
2018-05-08T23:39:36.193Z,94165.21
2018-05-08T23:42:02.519Z,94168.89
2018-05-08T23:44:28.900Z,94165.15
2018-05-08T23:46:55.307Z,94154.72
2018-05-08T23:49:21.624Z,94153.27
2018-05-08T23:51:49.360Z,94156.54
2018-05-08T23:54:16.082Z,94147.27
2018-05-08T23:56:42.438Z,94142.96
2018-05-08T23:59:08.940Z,94141.48
